createdAt,value
2017-11-01T00:02:16.449Z,54.53
2017-11-01T00:04:44.443Z,55.00
2017-11-01T00:07:12.418Z,54.43
2017-11-01T00:09:40.388Z,55.20
2017-11-01T00:12:08.356Z,54.40
2017-11-01T00:14:36.325Z,53.30
2017-11-01T00:17:04.319Z,54.40
2017-11-01T00:19:32.336Z,54.80
2017-11-01T00:22:00.258Z,52.33
2017-11-01T00:24:28.376Z,58.03
2017-11-01T00:26:56.294Z,53.10
2017-11-01T00:29:24.248Z,56.33
2017-11-01T00:31:52.247Z,55.40
2017-11-01T00:34:20.200Z,55.67
2017-11-01T00:36:48.138Z,54.37
2017-11-01T00:39:16.131Z,55.97
2017-11-01T00:41:44.138Z,51.53
2017-11-01T00:44:12.096Z,59.00
2017-11-01T00:46:40.052Z,57.90
2017-11-01T00:49:08.033Z,54.40
2017-11-01T00:51:35.999Z,51.40
2017-11-01T00:54:03.963Z,59.43
2017-11-01T00:56:31.984Z,54.53
2017-11-01T00:58:59.948Z,57.40
2017-11-01T01:01:27.906Z,56.10
2017-11-01T01:03:55.875Z,58.20
2017-11-01T01:06:23.826Z,59.73
2017-11-01T01:08:51.788Z,58.57
2017-11-01T01:11:19.743Z,56.47
2017-11-01T01:13:47.850Z,56.53
2017-11-01T01:16:15.799Z,55.93
2017-11-01T01:19:03.155Z,53.27
2017-11-01T01:21:31.158Z,51.90
2017-11-01T01:23:59.198Z,51.33
2017-11-01T01:26:27.144Z,51.07
2017-11-01T01:28:55.170Z,50.77
2017-11-01T01:31:23.155Z,53.47
2017-11-01T01:33:51.136Z,47.70
2017-11-01T01:36:19.101Z,48.57
2017-11-01T01:38:47.097Z,41.87
2017-11-01T01:41:15.226Z,42.50
2017-11-01T01:43:43.183Z,46.87
2017-11-01T01:46:11.191Z,45.33
2017-11-01T01:48:39.157Z,37.20
2017-11-01T01:51:07.167Z,43.17
2017-11-01T01:53:35.138Z,42.30
2017-11-01T01:56:03.079Z,36.30
2017-11-01T01:58:31.040Z,36.20
2017-11-01T02:00:59.006Z,34.97
2017-11-01T02:03:26.950Z,37.77
2017-11-01T02:05:54.899Z,43.17
2017-11-01T02:08:22.851Z,36.43
2017-11-01T02:10:50.821Z,35.50
2017-11-01T02:13:18.758Z,41.40
2017-11-01T02:15:47.606Z,33.73
2017-11-01T02:18:15.563Z,36.67
2017-11-01T02:20:43.531Z,36.00
2017-11-01T02:23:11.464Z,31.70
2017-11-01T02:25:39.415Z,33.33
2017-11-01T02:28:07.389Z,31.83
2017-11-01T02:30:35.327Z,32.67
2017-11-01T02:33:03.323Z,30.40
2017-11-01T02:35:31.270Z,28.40
2017-11-01T02:37:59.187Z,29.90
2017-11-01T02:40:27.137Z,26.57
2017-11-01T02:42:55.102Z,30.37
2017-11-01T02:45:23.018Z,28.30
2017-11-01T02:47:51.000Z,24.63
2017-11-01T02:50:19.939Z,29.50
2017-11-01T02:52:47.890Z,24.30
2017-11-01T02:55:15.894Z,27.60
2017-11-01T02:57:43.834Z,27.43
2017-11-01T03:00:11.779Z,25.30
2017-11-01T03:02:39.735Z,26.30
2017-11-01T03:05:07.699Z,24.60
2017-11-01T03:07:35.655Z,25.50
2017-11-01T03:10:03.582Z,23.10
2017-11-01T03:12:31.571Z,24.47
2017-11-01T03:14:59.525Z,20.33
2017-11-01T03:17:27.448Z,19.63
2017-11-01T03:19:55.408Z,19.70
2017-11-01T03:22:23.400Z,22.00
2017-11-01T03:24:51.363Z,22.67
2017-11-01T03:27:19.325Z,20.00
2017-11-01T03:29:47.305Z,20.77
2017-11-01T03:32:15.271Z,18.50
2017-11-01T03:34:43.231Z,19.57
2017-11-01T03:37:11.208Z,17.63
2017-11-01T03:39:39.203Z,17.13
2017-11-01T03:42:07.137Z,17.70
2017-11-01T03:44:35.082Z,18.50
2017-11-01T03:47:03.047Z,19.60
2017-11-01T03:49:31.015Z,19.37
2017-11-01T03:51:59.002Z,17.73
2017-11-01T03:54:26.955Z,17.70
2017-11-01T03:56:54.920Z,16.10
2017-11-01T03:59:22.895Z,18.87
2017-11-01T04:01:51.547Z,15.30
2017-11-01T04:04:19.483Z,14.37
2017-11-01T04:06:47.446Z,14.40
2017-11-01T04:09:15.408Z,15.20
2017-11-01T04:11:43.398Z,15.17
2017-11-01T04:14:11.377Z,13.83
2017-11-01T04:16:39.356Z,14.57
2017-11-01T04:19:09.279Z,13.73
2017-11-01T04:21:38.520Z,14.93
2017-11-01T04:24:06.459Z,15.03
2017-11-01T04:26:34.416Z,13.20
2017-11-01T04:29:02.394Z,13.23
2017-11-01T04:31:30.344Z,11.93
2017-11-01T04:33:59.144Z,11.67
2017-11-01T04:36:27.136Z,12.30
2017-11-01T04:38:55.832Z,13.30
2017-11-01T04:41:23.783Z,11.70
2017-11-01T04:43:51.740Z,10.50
2017-11-01T04:46:19.692Z,11.87
2017-11-01T04:51:37.707Z,10.90
2017-11-01T04:54:05.672Z,10.10
2017-11-01T04:56:33.657Z,10.27
2017-11-01T04:59:01.631Z,10.43
2017-11-01T05:01:29.636Z,9.57
2017-11-01T05:03:57.759Z,9.40
2017-11-01T05:06:28.505Z,8.77
2017-11-01T05:08:57.243Z,7.87
2017-11-01T05:11:30.851Z,9.37
2017-11-01T05:16:52.427Z,8.57
2017-11-01T05:19:20.376Z,9.33
2017-11-01T05:21:48.348Z,10.03
2017-11-01T05:24:16.288Z,9.83
2017-11-01T05:26:44.245Z,10.10
2017-11-01T05:29:12.221Z,12.33
2017-11-01T05:31:40.173Z,11.53
2017-11-01T05:34:08.157Z,10.70
2017-11-01T05:36:36.134Z,11.77
2017-11-01T05:39:04.181Z,15.87
2017-11-01T05:41:32.208Z,15.50
2017-11-01T05:44:00.140Z,14.17
2017-11-01T05:46:28.108Z,15.37
2017-11-01T05:48:56.093Z,14.20
2017-11-01T05:51:24.057Z,15.10
2017-11-01T05:53:52.018Z,15.60
2017-11-01T05:56:20.879Z,14.67
2017-11-01T05:58:48.880Z,15.77
2017-11-01T06:01:16.794Z,16.03
2017-11-01T06:03:44.762Z,16.47
2017-11-01T06:06:12.710Z,15.93
2017-11-01T06:08:40.664Z,16.30
2017-11-01T06:11:08.627Z,15.90
2017-11-01T06:13:36.589Z,16.97
2017-11-01T06:16:04.553Z,15.87
2017-11-01T06:18:32.532Z,15.20
2017-11-01T06:21:00.603Z,14.93
2017-11-01T06:23:28.600Z,14.73
2017-11-01T06:25:56.560Z,14.90
2017-11-01T06:28:24.546Z,14.93
2017-11-01T06:30:52.508Z,13.07
2017-11-01T06:33:20.532Z,15.53
2017-11-01T06:35:49.300Z,14.27
2017-11-01T06:38:17.293Z,15.43
2017-11-01T06:40:45.322Z,22.83
2017-11-01T06:43:13.272Z,45.97
2017-11-01T06:45:41.206Z,19.87
2017-11-01T06:48:09.170Z,15.27
2017-11-01T06:50:37.297Z,17.23
2017-11-01T06:53:06.103Z,16.37
2017-11-01T06:55:34.048Z,18.67
2017-11-01T06:58:02.015Z,14.50
2017-11-01T07:00:38.745Z,16.57
2017-11-01T07:03:06.758Z,16.03
2017-11-01T07:05:35.641Z,14.20
2017-11-01T07:08:03.699Z,13.27
2017-11-01T07:10:31.765Z,13.30
2017-11-01T07:13:00.079Z,12.40
2017-11-01T07:15:28.040Z,11.63
2017-11-01T07:17:56.003Z,11.27
2017-11-01T07:20:23.991Z,11.33
2017-11-01T07:22:52.247Z,11.63
2017-11-01T07:25:20.193Z,10.90
2017-11-01T07:27:48.572Z,10.67
2017-11-01T07:30:16.537Z,11.00
2017-11-01T07:32:44.536Z,10.53
2017-11-01T07:35:12.770Z,9.07
2017-11-01T07:37:40.920Z,9.70
2017-11-01T07:40:08.876Z,9.20
2017-11-01T07:42:36.855Z,9.50
2017-11-01T07:45:04.932Z,8.97
2017-11-01T07:47:32.911Z,8.50
2017-11-01T07:50:01.590Z,8.17
2017-11-01T07:52:29.560Z,8.83
2017-11-01T07:54:58.333Z,9.63
2017-11-01T07:57:26.870Z,10.77
2017-11-01T07:59:54.921Z,10.27
2017-11-01T08:02:22.930Z,13.93
2017-11-01T08:04:50.902Z,13.30
2017-11-01T08:07:18.859Z,13.43
2017-11-01T08:09:52.005Z,14.90
2017-11-01T08:12:20.062Z,15.77
2017-11-01T08:14:48.002Z,14.33
2017-11-01T08:17:15.994Z,15.37
2017-11-01T08:19:44.582Z,14.10
2017-11-01T08:22:12.525Z,12.60
2017-11-01T08:24:40.791Z,13.30
2017-11-01T08:27:08.898Z,12.10
2017-11-01T08:29:36.872Z,11.60
2017-11-01T08:32:04.937Z,10.47
2017-11-01T08:34:32.976Z,11.40
2017-11-01T08:37:00.971Z,12.47
2017-11-01T08:39:28.935Z,10.67
2017-11-01T08:41:57.007Z,11.47
2017-11-01T08:44:26.270Z,10.80
2017-11-01T08:46:54.241Z,13.10
2017-11-01T08:49:22.240Z,14.90
2017-11-01T08:51:50.173Z,11.10
2017-11-01T08:54:18.598Z,12.50
2017-11-01T08:56:46.576Z,12.10
2017-11-01T08:59:14.572Z,12.00
2017-11-01T09:01:42.503Z,11.70
2017-11-01T09:04:10.449Z,11.93
2017-11-01T09:06:38.452Z,13.93
2017-11-01T09:09:06.378Z,13.40
2017-11-01T09:11:34.403Z,12.70
2017-11-01T09:14:02.424Z,14.00
2017-11-01T09:16:30.437Z,11.80
2017-11-01T09:18:58.445Z,15.53
2017-11-01T09:21:26.476Z,10.80
2017-11-01T09:23:54.435Z,10.93
2017-11-01T09:26:22.415Z,11.73
2017-11-01T09:28:50.363Z,11.67
2017-11-01T09:31:18.343Z,12.67
2017-11-01T09:33:46.275Z,10.17
2017-11-01T09:36:14.266Z,12.40
2017-11-01T09:38:42.192Z,9.23
2017-11-01T09:41:10.423Z,9.70
2017-11-01T09:43:38.356Z,9.73
2017-11-01T09:46:06.306Z,9.40
2017-11-01T09:48:34.235Z,13.20
2017-11-01T09:51:02.211Z,10.90
2017-11-01T09:53:30.146Z,8.80
2017-11-01T09:55:58.079Z,13.43
2017-11-01T09:58:26.047Z,9.60
2017-11-01T10:00:54.016Z,8.90
2017-11-01T10:03:22.005Z,10.10
2017-11-01T10:05:49.963Z,10.00
2017-11-01T10:08:17.905Z,11.97
2017-11-01T10:10:45.815Z,9.90
2017-11-01T10:13:13.759Z,8.40
2017-11-01T10:15:41.706Z,8.50
2017-11-01T10:18:09.768Z,10.13
2017-11-01T10:20:37.702Z,8.80
2017-11-01T10:23:05.660Z,8.90
2017-11-01T10:25:33.600Z,9.90
2017-11-01T10:28:01.537Z,9.17
2017-11-01T10:30:29.465Z,7.90
2017-11-01T10:32:57.420Z,8.37
2017-11-01T10:35:25.352Z,8.00
2017-11-01T10:37:53.301Z,6.73
2017-11-01T10:40:21.230Z,6.90
2017-11-01T10:42:49.244Z,6.43
2017-11-01T10:45:17.175Z,7.37
2017-11-01T10:47:45.166Z,8.10
2017-11-01T10:50:13.351Z,8.03
2017-11-01T10:52:41.340Z,8.37
2017-11-01T10:55:09.285Z,7.60
2017-11-01T10:57:37.251Z,9.10
2017-11-01T11:00:05.211Z,7.43
2017-11-01T11:02:33.184Z,7.60
2017-11-01T11:05:01.205Z,8.10
2017-11-01T11:07:29.197Z,6.80
2017-11-01T11:09:57.146Z,8.20
2017-11-01T11:12:25.124Z,6.30
2017-11-01T11:14:53.133Z,8.40
2017-11-01T11:17:21.055Z,7.33
2017-11-01T11:19:48.995Z,10.83
2017-11-01T11:22:17.034Z,13.40
2017-11-01T11:24:45.260Z,9.00
2017-11-01T11:27:13.295Z,8.80
2017-11-01T11:29:41.360Z,8.03
2017-11-01T11:32:09.291Z,6.60
2017-11-01T11:34:37.242Z,7.30
2017-11-01T11:37:05.233Z,6.93
2017-11-01T11:39:33.199Z,7.80
2017-11-01T11:42:01.141Z,7.40
2017-11-01T11:44:29.139Z,6.53
2017-11-01T11:46:57.104Z,8.20
2017-11-01T11:49:25.043Z,9.97
2017-11-01T11:51:53.043Z,9.23
2017-11-01T11:54:22.103Z,8.30
2017-11-01T11:56:50.056Z,9.97
2017-11-01T11:59:18.081Z,12.90
2017-11-01T12:01:46.126Z,10.03
2017-11-01T12:04:14.154Z,11.93
2017-11-01T12:06:42.103Z,9.03
2017-11-01T12:09:10.135Z,10.57
2017-11-01T12:11:38.224Z,8.93
2017-11-01T12:14:06.216Z,8.90
2017-11-01T12:16:34.165Z,10.83
2017-11-01T12:19:02.262Z,8.93
2017-11-01T12:21:30.408Z,12.20
2017-11-01T12:23:58.368Z,12.50
2017-11-01T12:26:26.445Z,11.13
2017-11-01T12:28:55.309Z,14.00
2017-11-01T12:31:24.553Z,17.00
2017-11-01T12:33:53.145Z,12.57
2017-11-01T12:36:21.220Z,12.30
2017-11-01T12:38:49.189Z,15.63
2017-11-01T12:41:17.605Z,15.07
2017-11-01T12:43:45.563Z,15.80
2017-11-01T12:46:13.783Z,16.40
2017-11-01T12:48:41.980Z,16.73
2017-11-01T12:51:09.932Z,15.33
2017-11-01T12:53:38.024Z,20.83
2017-11-01T12:56:06.036Z,17.97
2017-11-01T12:58:34.055Z,17.57
2017-11-01T13:01:02.151Z,21.47
2017-11-01T13:03:30.125Z,18.90
2017-11-01T13:05:58.126Z,20.40
2017-11-01T13:08:26.183Z,18.93
2017-11-01T13:10:54.707Z,22.40
2017-11-01T13:13:23.334Z,21.63
2017-11-01T13:15:51.518Z,27.87
2017-11-01T13:18:20.026Z,26.10
2017-11-01T13:20:47.986Z,22.57
2017-11-01T13:23:16.484Z,29.93
2017-11-01T13:25:44.496Z,30.97
2017-11-01T13:28:12.489Z,21.33
2017-11-01T13:30:40.965Z,27.30
2017-11-01T13:33:08.911Z,27.83
2017-11-01T13:35:37.030Z,27.53
2017-11-01T13:38:05.039Z,27.70
2017-11-01T13:40:33.151Z,29.80
2017-11-01T13:43:01.261Z,30.03
2017-11-01T13:45:30.079Z,34.07
2017-11-01T13:47:58.140Z,28.27
2017-11-01T13:50:26.313Z,36.03
2017-11-01T13:52:54.466Z,47.33
2017-11-01T13:55:22.471Z,31.10
2017-11-01T13:57:50.508Z,30.17
2017-11-01T14:00:18.483Z,28.53
2017-11-01T14:02:47.325Z,33.73
2017-11-01T14:05:15.290Z,29.77
2017-11-01T14:07:44.097Z,34.70
2017-11-01T14:10:12.084Z,31.47
2017-11-01T14:12:40.126Z,25.97
2017-11-01T14:15:09.023Z,34.67
2017-11-01T14:17:38.014Z,25.47
2017-11-01T14:20:06.220Z,29.60
2017-11-01T14:22:34.184Z,25.80
2017-11-01T14:25:02.210Z,29.00
2017-11-01T14:27:30.419Z,33.80
2017-11-01T14:29:58.445Z,31.03
2017-11-01T14:32:26.463Z,29.60
2017-11-01T14:34:54.506Z,32.83
2017-11-01T14:37:22.473Z,32.83
2017-11-01T14:39:50.449Z,31.67
2017-11-01T14:42:18.699Z,24.77
2017-11-01T14:44:47.005Z,31.73
2017-11-01T14:47:15.024Z,49.50
2017-11-01T14:49:43.012Z,94.90
2017-11-01T14:52:11.010Z,34.53
2017-11-01T14:54:39.077Z,29.03
2017-11-01T14:57:07.404Z,45.33
2017-11-01T14:59:35.453Z,29.60
2017-11-01T15:02:03.543Z,28.40
2017-11-01T15:04:31.734Z,36.57
2017-11-01T15:06:59.713Z,32.83
2017-11-01T15:09:28.862Z,28.63
2017-11-01T15:11:59.110Z,23.87
2017-11-01T15:14:27.578Z,28.57
2017-11-01T15:16:56.642Z,33.70
2017-11-01T15:19:24.596Z,25.13
2017-11-01T15:21:52.616Z,26.50
2017-11-01T15:24:20.643Z,25.90
2017-11-01T15:26:48.678Z,32.67
2017-11-01T15:29:16.832Z,27.10
2017-11-01T15:31:44.919Z,26.63
2017-11-01T15:34:13.150Z,29.60
2017-11-01T15:36:41.276Z,33.97
2017-11-01T15:39:09.384Z,32.40
2017-11-01T15:41:37.534Z,27.73
2017-11-01T15:44:05.495Z,29.30
2017-11-01T15:46:33.506Z,34.20
2017-11-01T15:49:01.501Z,28.27
2017-11-01T15:51:30.588Z,31.43
2017-11-01T15:53:59.033Z,33.90
2017-11-01T15:56:27.515Z,29.63
2017-11-01T15:58:56.600Z,30.30
2017-11-01T16:01:24.668Z,26.30
2017-11-01T16:03:52.771Z,30.83
2017-11-01T16:06:20.753Z,31.90
2017-11-01T16:08:49.674Z,38.90
2017-11-01T16:11:17.712Z,28.63
2017-11-01T16:13:45.874Z,27.20
2017-11-01T16:16:13.850Z,33.73
2017-11-01T16:18:42.002Z,28.57
2017-11-01T16:21:10.069Z,25.27
2017-11-01T16:23:38.109Z,25.50
2017-11-01T16:26:06.106Z,30.33
2017-11-01T16:28:34.055Z,22.10
2017-11-01T16:31:02.081Z,26.70
2017-11-01T16:33:30.297Z,22.53
2017-11-01T16:35:58.270Z,35.33
2017-11-01T16:38:26.323Z,24.43
2017-11-01T16:40:54.311Z,29.70
2017-11-01T16:43:22.450Z,25.10
2017-11-01T16:45:50.596Z,27.20
2017-11-01T16:50:52.876Z,22.93
2017-11-01T16:53:20.856Z,26.10
2017-11-01T16:55:48.825Z,26.10
2017-11-01T16:58:16.777Z,27.57
2017-11-01T17:00:44.804Z,29.27
2017-11-01T17:03:12.840Z,25.33
2017-11-01T17:05:40.802Z,27.90
2017-11-01T17:08:08.749Z,31.40
2017-11-01T17:10:36.978Z,29.37
2017-11-01T17:13:04.922Z,31.43
2017-11-01T17:15:32.998Z,29.77
2017-11-01T17:18:01.059Z,35.73
2017-11-01T17:20:29.093Z,30.23
2017-11-01T17:22:57.103Z,30.30
2017-11-01T17:25:25.183Z,26.40
2017-11-01T17:27:53.142Z,29.37
2017-11-01T17:30:21.319Z,30.93
2017-11-01T17:32:49.862Z,26.90
2017-11-01T17:35:17.869Z,30.10
2017-11-01T17:37:45.858Z,30.77
2017-11-01T17:40:13.811Z,27.23
2017-11-01T17:42:41.753Z,27.30
2017-11-01T17:45:09.928Z,30.40
2017-11-01T17:47:37.983Z,28.63
2017-11-01T17:50:06.169Z,24.40
2017-11-01T17:52:35.064Z,25.13
2017-11-01T17:55:03.164Z,26.03
2017-11-01T17:57:31.155Z,23.10
2017-11-01T17:59:59.410Z,27.03
2017-11-01T18:02:27.353Z,23.80
2017-11-01T18:04:55.346Z,24.80
2017-11-01T18:07:23.337Z,28.93
2017-11-01T18:09:51.343Z,25.63
2017-11-01T18:12:19.387Z,24.93
2017-11-01T18:14:47.473Z,25.50
2017-11-01T18:17:15.741Z,26.07
2017-11-01T18:19:43.923Z,24.50
2017-11-01T18:22:11.961Z,28.27
2017-11-01T18:24:40.000Z,26.67
2017-11-01T18:27:08.013Z,30.47
2017-11-01T18:29:36.517Z,28.33
2017-11-01T18:32:04.552Z,34.00
2017-11-01T18:34:32.616Z,31.60
2017-11-01T18:37:00.840Z,33.53
2017-11-01T18:39:28.837Z,30.17
2017-11-01T18:41:56.814Z,32.80
2017-11-01T18:44:24.798Z,40.87
2017-11-01T18:46:53.501Z,30.20
2017-11-01T18:49:22.171Z,31.87
2017-11-01T18:51:50.205Z,40.90
2017-11-01T18:54:18.232Z,37.70
2017-11-01T18:56:46.192Z,32.77
2017-11-01T18:59:14.317Z,41.17
2017-11-01T19:01:42.411Z,47.83
2017-11-01T19:04:11.202Z,38.80
2017-11-01T19:06:39.933Z,41.20
2017-11-01T19:09:07.955Z,35.10
2017-11-01T19:11:37.148Z,36.80
2017-11-01T19:14:05.626Z,39.60
2017-11-01T19:16:38.797Z,41.23
2017-11-01T19:19:06.971Z,41.87
2017-11-01T19:21:36.400Z,38.97
2017-11-01T19:24:04.913Z,41.00
2017-11-01T19:26:39.386Z,45.47
2017-11-01T19:29:07.721Z,39.40
2017-11-01T19:31:37.034Z,41.33
2017-11-01T19:34:05.462Z,42.57
2017-11-01T19:36:33.620Z,46.43
2017-11-01T19:39:03.028Z,43.43
2017-11-01T19:41:31.774Z,47.17
2017-11-01T19:44:00.237Z,50.00
2017-11-01T19:46:29.931Z,48.30
2017-11-01T19:48:58.882Z,46.80
2017-11-01T19:51:27.003Z,53.23
2017-11-01T19:53:55.106Z,51.93
2017-11-01T19:56:23.380Z,49.00
2017-11-01T19:58:51.396Z,50.57
2017-11-01T20:01:19.576Z,51.57
2017-11-01T20:03:47.644Z,49.63
2017-11-01T20:06:15.618Z,51.27
2017-11-01T20:08:43.970Z,44.73
2017-11-01T20:11:11.956Z,47.00
2017-11-01T20:13:40.083Z,51.97
2017-11-01T20:16:09.912Z,50.40
2017-11-01T20:18:38.374Z,51.47
2017-11-01T20:21:06.654Z,52.50
2017-11-01T20:23:35.305Z,57.10
2017-11-01T20:26:03.275Z,50.17
2017-11-01T20:28:31.242Z,52.53
2017-11-01T20:33:33.739Z,46.60
2017-11-01T20:36:01.702Z,51.60
2017-11-01T20:38:29.764Z,54.67
2017-11-01T20:40:57.767Z,44.73
2017-11-01T20:43:25.737Z,49.93
2017-11-01T20:45:54.038Z,44.13
2017-11-01T20:48:22.043Z,49.63
2017-11-01T20:50:50.054Z,44.20
2017-11-01T20:53:18.113Z,45.37
2017-11-01T20:58:20.353Z,43.30
2017-11-01T21:00:48.392Z,45.90
2017-11-01T21:03:17.288Z,42.13
2017-11-01T21:05:45.285Z,43.27
2017-11-01T21:08:13.236Z,38.30
2017-11-01T21:10:41.232Z,46.30
2017-11-01T21:13:09.382Z,39.80
2017-11-01T21:15:37.364Z,42.93
2017-11-01T21:18:05.835Z,38.53
2017-11-01T21:20:33.814Z,39.43
2017-11-01T21:23:01.813Z,37.33
2017-11-01T21:25:30.488Z,40.73
2017-11-01T21:27:58.740Z,38.37
2017-11-01T21:30:27.467Z,38.70
2017-11-01T21:32:55.986Z,38.50
2017-11-01T21:35:23.954Z,41.40
2017-11-01T21:37:51.907Z,34.67
2017-11-01T21:40:19.866Z,40.87
2017-11-01T21:42:47.899Z,38.70
2017-11-01T21:45:15.859Z,41.23
2017-11-01T21:47:44.438Z,32.53
2017-11-01T21:50:12.420Z,36.00
2017-11-01T21:52:40.390Z,37.90
2017-11-01T21:55:08.819Z,30.70
2017-11-01T21:57:36.810Z,34.77
2017-11-01T22:00:04.746Z,36.40
2017-11-01T22:02:32.780Z,32.07
2017-11-01T22:05:00.715Z,29.70
2017-11-01T22:07:28.831Z,27.00
2017-11-01T22:09:56.781Z,28.10
2017-11-01T22:12:24.747Z,26.53
2017-11-01T22:14:52.759Z,24.33
2017-11-01T22:17:20.807Z,24.43
2017-11-01T22:19:48.759Z,21.03
2017-11-01T22:22:16.713Z,23.03
2017-11-01T22:24:44.689Z,18.10
2017-11-01T22:27:12.681Z,18.80
2017-11-01T22:29:40.589Z,22.50
2017-11-01T22:32:09.382Z,18.43
2017-11-01T22:34:37.371Z,20.90
2017-11-01T22:37:05.827Z,14.70
2017-11-01T22:39:33.822Z,15.33
2017-11-01T22:42:01.855Z,15.33
2017-11-01T22:44:29.804Z,14.30
2017-11-01T22:46:57.827Z,18.30
2017-11-01T22:49:25.778Z,17.87
2017-11-01T22:51:53.712Z,18.40
2017-11-01T22:54:21.659Z,16.40
2017-11-01T22:56:49.603Z,12.33
2017-11-01T22:59:17.541Z,11.97
2017-11-01T23:01:45.488Z,14.33
2017-11-01T23:04:13.459Z,12.87
2017-11-01T23:06:41.404Z,9.40
2017-11-01T23:09:09.324Z,15.00
2017-11-01T23:11:37.287Z,11.27
2017-11-01T23:14:05.351Z,11.60
2017-11-01T23:16:33.329Z,12.30
2017-11-01T23:19:01.539Z,14.53
2017-11-01T23:21:29.476Z,14.67
2017-11-01T23:23:57.477Z,13.83
2017-11-01T23:26:27.968Z,13.30
2017-11-01T23:28:57.004Z,19.07
2017-11-01T23:31:25.463Z,15.97
2017-11-01T23:33:53.465Z,15.70
2017-11-01T23:36:21.740Z,17.93
2017-11-01T23:38:49.776Z,16.20
2017-11-01T23:41:17.902Z,22.30
2017-11-01T23:43:45.859Z,17.87
2017-11-01T23:46:13.829Z,19.07
2017-11-01T23:48:41.870Z,23.10
2017-11-01T23:51:09.917Z,20.13
2017-11-01T23:53:37.955Z,20.20
2017-11-01T23:56:05.923Z,20.50
2017-11-01T23:58:33.902Z,22.13
